Time,TemperatureF,DewpointF,PressureIn,WindDirection,WindDirectionDegrees,WindSpeedMPH,WindSpeedGustMPH,Humidity,HourlyPrecipIn,Conditions,Clouds,dailyrainin,SoftwareType,DateUTC
2013-05-15 00:03:00,63.0,51.0,-100.00,SW,220,3.0,4.0,64,0.00,,,0.00,,2013-05-15 04:03:00,
2013-05-15 00:12:00,63.0,51.0,-100.00,SW,220,3.0,4.0,64,0.00,,,0.00,,2013-05-15 04:12:00,
2013-05-15 00:24:00,63.0,51.0,-100.00,SSW,198,1.0,2.0,65,0.00,,,0.00,,2013-05-15 04:24:00,
2013-05-15 00:33:00,63.0,51.0,-100.00,SE,126,0.0,1.0,65,0.00,,,0.00,,2013-05-15 04:33:00,
2013-05-15 00:43:00,63.0,51.0,-100.00,SE,126,0.0,1.0,65,0.00,,,0.00,,2013-05-15 04:43:00,
2013-05-15 00:52:00,63.0,51.0,-100.00,ENE,62,1.0,3.0,65,0.00,,,0.00,,2013-05-15 04:52:00,
2013-05-15 01:02:00,63.0,51.0,-100.00,SW,215,2.0,5.0,65,0.00,,,0.00,,2013-05-15 05:02:00,
2013-05-15 01:12:00,63.0,51.0,-100.00,SW,215,2.0,5.0,65,0.00,,,0.00,,2013-05-15 05:12:00,
2013-05-15 01:22:00,63.0,51.0,-100.00,WSW,239,2.0,4.0,66,0.00,,,0.00,,2013-05-15 05:22:00,
2013-05-15 01:32:00,62.0,52.0,-100.00,SW,224,4.0,6.0,68,0.00,,,0.00,,2013-05-15 05:32:00,
2013-05-15 01:42:00,62.0,52.0,-100.00,SW,224,4.0,6.0,68,0.00,,,0.00,,2013-05-15 05:42:00,
2013-05-15 01:52:00,62.0,52.0,-100.00,WSW,250,3.0,4.0,68,0.00,,,0.00,,2013-05-15 05:52:00,
2013-05-15 02:02:00,62.0,52.0,-100.00,SSW,209,2.0,3.0,70,0.00,,,0.00,,2013-05-15 06:02:00,
2013-05-15 02:11:00,62.0,52.0,-100.00,SSW,209,2.0,3.0,70,0.00,,,0.00,,2013-05-15 06:11:00,
2013-05-15 02:22:00,61.0,52.0,-100.00,WSW,239,2.0,3.0,70,0.00,,,0.00,,2013-05-15 06:22:00,
2013-05-15 02:32:00,61.0,52.0,-100.00,WSW,254,4.0,6.0,72,0.00,,,0.00,,2013-05-15 06:32:00,
2013-05-15 02:42:00,61.0,52.0,-100.00,WSW,254,4.0,6.0,72,0.00,,,0.00,,2013-05-15 06:42:00,
2013-05-15 02:52:00,61.0,52.0,-100.00,SW,215,3.0,4.0,73,0.00,,,0.00,,2013-05-15 06:52:00,
2013-05-15 03:01:00,60.0,53.0,-100.00,WSW,239,5.0,7.0,76,0.00,,,0.00,,2013-05-15 07:01:00,
2013-05-15 03:11:00,60.0,53.0,-100.00,WSW,239,5.0,7.0,76,0.00,,,0.00,,2013-05-15 07:11:00,
2013-05-15 03:22:00,60.0,53.0,-100.00,SW,224,4.0,6.0,77,0.00,,,0.00,,2013-05-15 07:22:00,
2013-05-15 03:32:00,60.0,53.0,-100.00,SW,236,3.0,4.0,76,0.00,,,0.00,,2013-05-15 07:32:00,
2013-05-15 03:42:00,60.0,53.0,-100.00,SW,236,3.0,4.0,76,0.00,,,0.00,,2013-05-15 07:42:00,
2013-05-15 03:52:00,60.0,53.0,-100.00,SW,232,3.0,6.0,77,0.00,,,0.00,,2013-05-15 07:52:00,
2013-05-15 04:02:00,60.0,53.0,-100.00,SW,232,4.0,7.0,78,0.00,,,0.00,,2013-05-15 08:02:00,
2013-05-15 04:12:00,60.0,53.0,-100.00,SW,232,4.0,7.0,78,0.00,,,0.00,,2013-05-15 08:12:00,
2013-05-15 04:21:00,60.0,53.0,-100.00,SW,233,4.0,5.0,78,0.00,,,0.00,,2013-05-15 08:21:00,
2013-05-15 04:32:00,60.0,53.0,-100.00,WSW,243,4.0,7.0,79,0.00,,,0.00,,2013-05-15 08:32:00,
2013-05-15 04:42:00,60.0,53.0,-100.00,WSW,243,4.0,7.0,79,0.00,,,0.00,,2013-05-15 08:42:00,
2013-05-15 04:53:00,59.0,53.0,-100.00,SW,229,3.0,4.0,81,0.00,,,0.00,,2013-05-15 08:53:00,
2013-05-15 05:01:00,58.0,53.0,-100.00,SW,224,4.0,5.0,83,0.00,,,0.00,,2013-05-15 09:01:00,
2013-05-15 05:12:00,58.0,53.0,-100.00,SW,224,4.0,5.0,83,0.00,,,0.00,,2013-05-15 09:12:00,
2013-05-15 05:22:00,59.0,53.0,-100.00,SW,229,4.0,7.0,82,0.00,,,0.00,,2013-05-15 09:22:00,
2013-05-15 05:33:00,58.0,53.0,-100.00,SW,224,2.0,3.0,84,0.00,,,0.00,,2013-05-15 09:33:00,
2013-05-15 05:42:00,58.0,53.0,-100.00,SW,224,2.0,3.0,84,0.00,,,0.00,,2013-05-15 09:42:00,
2013-05-15 05:53:00,58.0,53.0,-100.00,SW,219,3.0,5.0,84,0.00,,,0.00,,2013-05-15 09:53:00,
2013-05-15 06:02:00,58.0,53.0,-100.00,SW,219,3.0,5.0,84,0.00,,,0.00,,2013-05-15 10:02:00,
2013-05-15 06:13:00,58.0,53.0,-100.00,SW,219,3.0,5.0,84,0.00,,,0.00,,2013-05-15 10:13:00,
2013-05-15 06:23:00,58.0,53.0,-100.00,SW,216,4.0,5.0,85,0.00,,,0.00,,2013-05-15 10:23:00,
2013-05-15 06:32:00,57.0,53.0,-100.00,SW,220,4.0,6.0,87,0.00,,,0.00,,2013-05-15 10:32:00,
2013-05-15 06:42:00,57.0,53.0,-100.00,SW,220,4.0,6.0,87,0.00,,,0.00,,2013-05-15 10:42:00,
2013-05-15 06:52:00,57.0,54.0,-100.00,SW,222,4.0,6.0,88,0.00,,,0.00,,2013-05-15 10:52:00,
2013-05-15 07:19:00,57.0,53.0,-100.00,SW,236,2.0,5.0,86,0.00,,,0.00,,2013-05-15 11:19:00,
2013-05-15 07:38:00,58.0,54.0,-100.00,SW,217,2.0,5.0,85,0.00,,,0.00,,2013-05-15 11:38:00,
2013-05-15 08:01:00,59.0,54.0,-100.00,SSW,200,2.0,5.0,83,0.00,,,0.00,,2013-05-15 12:01:00,
2013-05-15 08:10:00,59.0,54.0,-100.00,SSW,205,3.0,4.0,83,0.00,,,0.00,,2013-05-15 12:10:00,
2013-05-15 08:16:00,59.0,54.0,-100.00,SSW,205,3.0,4.0,83,0.00,,,0.00,,2013-05-15 12:16:00,
2013-05-15 08:29:00,59.0,54.0,-100.00,SW,229,4.0,5.0,82,0.00,,,0.00,,2013-05-15 12:29:00,
2013-05-15 08:36:00,60.0,54.0,-100.00,SSW,205,3.0,5.0,81,0.00,,,0.00,,2013-05-15 12:36:00,
2013-05-15 08:57:00,61.0,54.0,-100.00,SSW,192,1.0,3.0,79,0.00,,,0.00,,2013-05-15 12:57:00,
2013-05-15 09:10:00,62.0,55.0,-100.00,SSW,202,3.0,6.0,77,0.00,,,0.00,,2013-05-15 13:10:00,
2013-05-15 09:19:00,62.0,55.0,-100.00,SSW,202,3.0,6.0,77,0.00,,,0.00,,2013-05-15 13:19:00,
2013-05-15 09:27:00,63.0,55.0,-100.00,SSW,192,1.0,2.0,77,0.00,,,0.00,,2013-05-15 13:27:00,
2013-05-15 09:36:00,64.0,56.0,-100.00,SSE,164,1.0,2.0,75,0.00,,,0.00,,2013-05-15 13:36:00,
2013-05-15 10:07:00,65.0,55.0,-100.00,SW,217,4.0,7.0,72,0.00,,,0.00,,2013-05-15 14:07:00,
2013-05-15 10:14:00,65.0,55.0,-100.00,SW,217,4.0,7.0,72,0.00,,,0.00,,2013-05-15 14:14:00,
2013-05-15 10:27:00,66.0,56.0,-100.00,SSW,209,2.0,7.0,69,0.00,,,0.00,,2013-05-15 14:27:00,
2013-05-15 10:38:00,67.0,55.0,-100.00,SW,219,5.0,8.0,66,0.00,,,0.00,,2013-05-15 14:38:00,
2013-05-15 10:49:00,67.0,55.0,-100.00,SW,219,5.0,8.0,66,0.00,,,0.00,,2013-05-15 14:49:00,
2013-05-15 11:09:00,69.0,56.0,-100.00,SSW,203,2.0,6.0,64,0.00,,,0.00,,2013-05-15 15:09:00,
2013-05-15 11:16:00,69.0,56.0,-100.00,SSW,203,2.0,6.0,64,0.00,,,0.00,,2013-05-15 15:16:00,
2013-05-15 11:29:00,69.0,56.0,-100.00,SSW,195,3.0,6.0,62,0.00,,,0.00,,2013-05-15 15:29:00,
2013-05-15 11:38:00,70.0,56.0,-100.00,SW,223,4.0,8.0,60,0.00,,,0.00,,2013-05-15 15:38:00,
2013-05-15 11:48:00,70.0,56.0,-100.00,SW,223,4.0,8.0,60,0.00,,,0.00,,2013-05-15 15:48:00,
2013-05-15 12:02:00,71.0,56.0,-100.00,SW,219,5.0,8.0,59,0.00,,,0.00,,2013-05-15 16:02:00,
2013-05-15 12:10:00,72.0,56.0,-100.00,SW,232,5.0,8.0,58,0.00,,,0.00,,2013-05-15 16:10:00,
2013-05-15 12:24:00,72.0,56.0,-100.00,SW,232,5.0,8.0,58,0.00,,,0.00,,2013-05-15 16:24:00,
2013-05-15 12:49:00,74.0,57.0,-100.00,SW,219,4.0,7.0,55,0.00,,,0.00,,2013-05-15 16:49:00,
2013-05-15 13:01:00,75.0,58.0,-100.00,SSW,206,4.0,9.0,55,0.00,,,0.00,,2013-05-15 17:01:00,
2013-05-15 13:11:00,76.0,58.0,-100.00,South,172,2.0,6.0,54,0.00,,,0.00,,2013-05-15 17:11:00,
2013-05-15 13:21:00,76.0,58.0,-100.00,South,172,2.0,6.0,54,0.00,,,0.00,,2013-05-15 17:21:00,
2013-05-15 13:28:00,77.0,59.0,-100.00,SW,224,4.0,7.0,54,0.00,,,0.00,,2013-05-15 17:28:00,
2013-05-15 13:38:00,77.0,59.0,-100.00,SW,224,4.0,7.0,54,0.00,,,0.00,,2013-05-15 17:38:00,
2013-05-15 13:49:00,77.0,59.0,-100.00,SW,224,4.0,7.0,54,0.00,,,0.00,,2013-05-15 17:49:00,
2013-05-15 13:59:00,77.0,56.0,-100.00,SW,217,7.0,12.0,48,0.00,,,0.00,,2013-05-15 17:59:00,
2013-05-15 14:07:00,78.0,58.0,-100.00,SSW,202,2.0,5.0,51,0.00,,,0.00,,2013-05-15 18:07:00,
2013-05-15 14:16:00,78.0,58.0,-100.00,SSW,202,2.0,5.0,51,0.00,,,0.00,,2013-05-15 18:16:00,
2013-05-15 14:37:00,79.0,57.0,-100.00,SW,226,6.0,11.0,48,0.00,,,0.00,,2013-05-15 18:37:00,
2013-05-15 14:47:00,79.0,57.0,-100.00,SW,226,6.0,11.0,48,0.00,,,0.00,,2013-05-15 18:47:00,
2013-05-15 14:58:00,79.0,56.0,-100.00,SW,223,6.0,12.0,44,0.00,,,0.00,,2013-05-15 18:58:00,
2013-05-15 15:09:00,79.0,56.0,-100.00,SW,223,6.0,12.0,44,0.00,,,0.00,,2013-05-15 19:09:00,
2013-05-15 15:16:00,79.0,56.0,-100.00,SW,223,6.0,12.0,44,0.00,,,0.00,,2013-05-15 19:16:00,
2013-05-15 15:30:00,80.0,56.0,-100.00,SSW,203,5.0,11.0,44,0.00,,,0.00,,2013-05-15 19:30:00,
2013-05-15 15:47:00,79.0,57.0,-100.00,WSW,240,9.0,15.0,46,0.00,,,0.00,,2013-05-15 19:47:00,
2013-05-15 15:58:00,80.0,60.0,-100.00,SSW,199,4.0,8.0,51,0.00,,,0.00,,2013-05-15 19:58:00,
2013-05-15 16:08:00,80.0,56.0,-100.00,WSW,243,7.0,11.0,44,0.00,,,0.00,,2013-05-15 20:08:00,
2013-05-15 16:20:00,80.0,56.0,-100.00,WSW,243,7.0,11.0,44,0.00,,,0.00,,2013-05-15 20:20:00,
2013-05-15 16:30:00,80.0,56.0,-100.00,WSW,246,8.0,13.0,44,0.00,,,0.00,,2013-05-15 20:30:00,
2013-05-15 16:47:00,81.0,56.0,-100.00,South,189,2.0,4.0,43,0.00,,,0.00,,2013-05-15 20:47:00,
2013-05-15 16:59:00,81.0,56.0,-100.00,SW,227,5.0,13.0,42,0.00,,,0.00,,2013-05-15 20:59:00,
2013-05-15 17:09:00,81.0,55.0,-100.00,SW,222,5.0,10.0,41,0.00,,,0.00,,2013-05-15 21:09:00,
2013-05-15 17:21:00,80.0,55.0,-100.00,SW,220,7.0,11.0,42,0.00,,,0.00,,2013-05-15 21:21:00,
2013-05-15 17:28:00,80.0,55.0,-100.00,SW,220,7.0,11.0,42,0.00,,,0.00,,2013-05-15 21:28:00,
2013-05-15 17:41:00,81.0,55.0,-100.00,WSW,240,8.0,12.0,41,0.00,,,0.00,,2013-05-15 21:41:00,
2013-05-15 17:51:00,81.0,55.0,-100.00,WSW,240,8.0,12.0,41,0.00,,,0.00,,2013-05-15 21:51:00,
2013-05-15 18:00:00,81.0,53.0,-100.00,SW,224,5.0,8.0,38,0.00,,,0.00,,2013-05-15 22:00:00,
2013-05-15 18:11:00,80.0,55.0,-100.00,WSW,243,7.0,11.0,42,0.00,,,0.00,,2013-05-15 22:11:00,
2013-05-15 18:19:00,80.0,55.0,-100.00,WSW,243,7.0,11.0,42,0.00,,,0.00,,2013-05-15 22:19:00,
2013-05-15 18:30:00,80.0,53.0,-100.00,SW,219,6.0,10.0,39,0.00,,,0.00,,2013-05-15 22:30:00,
2013-05-15 18:40:00,80.0,53.0,-100.00,SSW,202,5.0,9.0,38,0.00,,,0.00,,2013-05-15 22:40:00,
2013-05-15 18:50:00,80.0,53.0,-100.00,SSW,202,5.0,9.0,38,0.00,,,0.00,,2013-05-15 22:50:00,
2013-05-15 19:00:00,80.0,54.0,-100.00,SW,215,5.0,9.0,41,0.00,,,0.00,,2013-05-15 23:00:00,
2013-05-15 19:08:00,80.0,54.0,-100.00,SW,227,4.0,7.0,41,0.00,,,0.00,,2013-05-15 23:08:00,
2013-05-15 19:29:00,79.0,53.0,-100.00,SW,215,5.0,11.0,41,0.00,,,0.00,,2013-05-15 23:29:00,
2013-05-15 19:39:00,78.0,52.0,-100.00,SW,233,6.0,9.0,40,0.00,,,0.00,,2013-05-15 23:39:00,
2013-05-15 19:50:00,78.0,52.0,-100.00,SW,233,6.0,9.0,40,0.00,,,0.00,,2013-05-15 23:50:00,
2013-05-15 20:01:00,76.0,52.0,-100.00,WSW,244,6.0,9.0,43,0.00,,,0.00,,2013-05-16 00:01:00,
2013-05-15 20:08:00,76.0,52.0,-100.00,WSW,247,7.0,11.0,42,0.00,,,0.00,,2013-05-16 00:08:00,
2013-05-15 20:18:00,76.0,52.0,-100.00,WSW,247,7.0,11.0,42,0.00,,,0.00,,2013-05-16 00:18:00,
2013-05-15 20:27:00,76.0,51.0,-100.00,WSW,246,7.0,10.0,43,0.00,,,0.00,,2013-05-16 00:27:00,
2013-05-15 20:36:00,76.0,52.0,-100.00,WSW,248,7.0,11.0,43,0.00,,,0.00,,2013-05-16 00:36:00,
2013-05-15 20:51:00,76.0,52.0,-100.00,WSW,248,7.0,11.0,43,0.00,,,0.00,,2013-05-16 00:51:00,
2013-05-15 20:58:00,75.0,51.0,-100.00,WSW,247,7.0,11.0,43,0.00,,,0.00,,2013-05-16 00:58:00,
2013-05-15 21:18:00,74.0,51.0,-100.00,WSW,237,4.0,7.0,45,0.00,,,0.00,,2013-05-16 01:18:00,
2013-05-15 21:30:00,74.0,52.0,-100.00,WSW,256,6.0,8.0,46,0.00,,,0.00,,2013-05-16 01:30:00,
2013-05-15 21:49:00,74.0,52.0,-100.00,WSW,257,7.0,10.0,46,0.00,,,0.00,,2013-05-16 01:49:00,
2013-05-15 22:01:00,73.0,52.0,-100.00,WSW,253,6.0,9.0,48,0.00,,,0.00,,2013-05-16 02:01:00,
2013-05-15 22:08:00,72.0,53.0,-100.00,WSW,239,4.0,6.0,50,0.00,,,0.00,,2013-05-16 02:08:00,
2013-05-15 22:18:00,72.0,53.0,-100.00,WSW,239,4.0,6.0,50,0.00,,,0.00,,2013-05-16 02:18:00,
2013-05-15 22:28:00,72.0,53.0,-100.00,West,261,4.0,6.0,51,0.00,,,0.00,,2013-05-16 02:28:00,
2013-05-15 22:38:00,72.0,54.0,-100.00,WSW,254,7.0,10.0,53,0.00,,,0.00,,2013-05-16 02:38:00,
2013-05-15 22:47:00,72.0,54.0,-100.00,WSW,254,7.0,10.0,53,0.00,,,0.00,,2013-05-16 02:47:00,
2013-05-15 22:56:00,72.0,54.0,-100.00,WSW,254,7.0,10.0,53,0.00,,,0.00,,2013-05-16 02:56:00,
2013-05-15 23:07:00,70.0,54.0,-100.00,WSW,246,3.0,5.0,58,0.00,,,0.00,,2013-05-16 03:07:00,
2013-05-15 23:17:00,70.0,54.0,-100.00,WSW,246,3.0,5.0,58,0.00,,,0.00,,2013-05-16 03:17:00,
2013-05-15 23:27:00,70.0,54.0,-100.00,WSW,246,3.0,5.0,58,0.00,,,0.00,,2013-05-16 03:27:00,
2013-05-15 23:47:00,69.0,55.0,-100.00,SW,233,2.0,4.0,61,0.00,,,0.00,,2013-05-16 03:47:00,
2013-05-15 23:58:00,69.0,55.0,-100.00,West,271,4.0,5.0,61,0.00,,,0.00,,2013-05-16 03:58:00,